Time;durP1;ratioP1;P1;durP2;ratioP2;P2;SDS_P1;SDS_P2;PMS_P1;PMS_P2;Temp;Humidity;BMP_temperature;BMP_pressure;BME280_temperature;BME280_humidity;BME280_pressure;Samples;Min_cycle;Max_cycle;Signal;HPM_P1;HPM_P2
2023/01/15 00:01:58;;;;;;;;;;;;;;;;;;5072482;28;1867;-39
2023/01/15 00:04:25;;;;;;;;;;;;;;;;;;5072489;28;1856;-39
2023/01/15 00:06:53;;;;;;;;;;;;;;;;;;5072204;28;1892;-39
2023/01/15 00:09:20;;;;;;;;;;;;;;;;;;5072378;28;1907;-39
2023/01/15 00:11:47;;;;;;;;;;;;;;;;;;5072404;28;1847;-40
2023/01/15 00:14:14;;;;;;;;;;;;;;;;;;5072248;28;1467;-40
2023/01/15 00:16:42;;;;;;;;;;;;;;;;;;5072299;28;1967;-40
2023/01/15 00:19:10;;;;;;;;;;;;;;;;;;5072026;28;1711;-39
2023/01/15 00:21:38;;;;;;;;;;;;;;;;;;5071917;28;1600;-39
2023/01/15 00:29:38;;;;;;;;;;;;;;;;;;5051724;28;2194;-39
2023/01/15 00:32:05;;;;;;;;;;;;;;;;;;5030466;28;1304;-39
2023/01/15 00:34:33;;;;;;;;;;;;;;;;;;5032026;28;1911;-39
2023/01/15 00:37:00;;;;;;;;;;;;;;;;;;5031959;28;2343;-39
2023/01/15 00:39:32;;;;;;;;;;;;;;;;;;5030550;28;1635;-38
2023/01/15 00:41:59;;;;;;;;;;;;;;;;;;5031857;28;1762;-39
2023/01/15 00:44:26;;;;;;;;;;;;;;;;;;5031715;28;2122;-40
2023/01/15 00:46:53;;;;;;;;;;;;;;;;;;5031611;28;1599;-39
2023/01/15 00:49:20;;;;;;;;;;;;;;;;;;5031598;28;1979;-39
2023/01/15 00:51:48;;;;;;;;;;;;;;;;;;5030434;28;1814;-39
2023/01/15 00:54:16;;;;;;;;;;;;;;;;;;5031609;28;1834;-39
2023/01/15 00:56:43;;;;;;;;;;;;;;;;;;5031462;28;1659;-39
2023/01/15 00:59:11;;;;;;;;;;;;;;;;;;5031365;28;2225;-39
2023/01/15 01:01:38;;;;;;;;;;;;;;;;;;5030628;28;1977;-39
2023/01/15 01:04:06;;;;;;;;;;;;;;;;;;5031576;28;1870;-39
2023/01/15 01:06:34;;;;;;;;;;;;;;;;;;5031069;28;1989;-40
2023/01/15 01:09:01;;;;;;;;;;;;;;;;;;5029828;28;1898;-38
2023/01/15 01:11:33;;;;;;;;;;;;;;;;;;5031079;28;1346;-39
2023/01/15 01:14:01;;;;;;;;;;;;;;;;;;5031320;28;1760;-39
2023/01/15 01:16:32;;;;;;;;;;;;;;;;;;5031269;28;1609;-39
2023/01/15 01:19:02;;;;;;;;;;;;;;;;;;5029766;28;1893;-40
2023/01/15 01:21:29;;;;;;;;;;;;;;;;;;5031323;28;1880;-40
2023/01/15 01:23:58;;;;;;;;;;;;;;;;;;5031112;28;2324;-39
2023/01/15 01:26:26;;;;;;;;;;;;;;;;;;5033158;28;1984;-39
2023/01/15 01:28:54;;;;;;;;;;;;;;;;;;5049879;28;1716;-39
2023/01/15 01:31:22;;;;;;;;;;;;;;;;;;5052132;28;1912;-39
2023/01/15 01:33:53;;;;;;;;;;;;;;;;;;5070846;28;2145;-39
2023/01/15 01:36:25;;;;;;;;;;;;;;;;;;5071057;28;1998;-39
2023/01/15 01:38:52;;;;;;;;;;;;;;;;;;5052925;28;2177;-39
2023/01/15 01:41:19;;;;;;;;;;;;;;;;;;5070948;28;1930;-40
2023/01/15 01:44:05;;;;;;;;;;;;;;;;;;5070949;28;1778;-39
2023/01/15 01:46:33;;;;;;;;;;;;;;;;;;5052978;28;1891;-39
2023/01/15 01:49:03;;;;;;;;;;;;;;;;;;5052635;28;1768;-39
2023/01/15 01:51:36;;;;;;;;;;;;;;;;;;5070842;28;1912;-39
2023/01/15 01:54:03;;;;;;;;;;;;;;;;;;5052715;28;2061;-39
2023/01/15 01:56:32;;;;;;;;;;;;;;;;;;5071043;28;2007;-40
2023/01/15 01:58:59;;;;;;;;;;;;;;;;;;5052668;28;2158;-38
2023/01/15 02:01:26;;;;;;;;;;;;;;;;;;5053023;28;1904;-39
2023/01/15 02:03:54;;;;;;;;;;;;;;;;;;5070677;28;1894;-39
2023/01/15 02:06:24;;;;;;;;;;;;;;;;;;5070781;28;1754;-39
2023/01/15 02:08:52;;;;;;;;;;;;;;;;;;5070837;28;1683;-39
2023/01/15 02:11:21;;;;;;;;;;;;;;;;;;5070715;28;1910;-40
2023/01/15 02:13:49;;;;;;;;;;;;;;;;;;5052758;28;2049;-39
2023/01/15 02:16:22;;;;;;;;;;;;;;;;;;5070583;28;2244;-38
2023/01/15 02:19:08;;;;;;;;;;;;;;;;;;5052702;28;2551;-39
2023/01/15 02:21:47;;;;;;;;;;;;;;;;;;5052419;28;2093;-38
2023/01/15 02:24:20;;;;;;;;;;;;;;;;;;5052737;28;1743;-39
2023/01/15 02:26:56;;;;;;;;;;;;;;;;;;5065327;28;1615;-39
2023/01/15 02:29:30;;;;;;;;;;;;;;;;;;5050747;28;1914;-39
2023/01/15 02:32:00;;;;;;;;;;;;;;;;;;5028943;28;1509;-39
2023/01/15 02:34:33;;;;;;;;;;;;;;;;;;5029284;28;1813;-39
2023/01/15 02:37:07;;;;;;;;;;;;;;;;;;5029043;28;2195;-39
2023/01/15 02:39:36;;;;;;;;;;;;;;;;;;5029199;28;1553;-39
2023/01/15 02:42:06;;;;;;;;;;;;;;;;;;5029086;28;2119;-38
2023/01/15 02:44:42;;;;;;;;;;;;;;;;;;5029256;28;1526;-39
2023/01/15 02:47:13;;;;;;;;;;;;;;;;;;5032352;28;1449;-39
2023/01/15 02:49:42;;;;;;;;;;;;;;;;;;5036299;28;1906;-38
2023/01/15 02:52:14;;;;;;;;;;;;;;;;;;5052707;28;2196;-39
2023/01/15 02:54:44;;;;;;;;;;;;;;;;;;5052619;28;2132;-39
2023/01/15 02:57:14;;;;;;;;;;;;;;;;;;5045849;28;2231;-39
2023/01/15 02:59:47;;;;;;;;;;;;;;;;;;5032231;28;1984;-39
2023/01/15 03:02:19;;;;;;;;;;;;;;;;;;5032342;28;1945;-39
2023/01/15 03:04:50;;;;;;;;;;;;;;;;;;5032412;28;1937;-39
2023/01/15 03:07:21;;;;;;;;;;;;;;;;;;5033407;28;2183;-39
2023/01/15 03:09:49;;;;;;;;;;;;;;;;;;5033411;28;2065;-39
2023/01/15 03:12:22;;;;;;;;;;;;;;;;;;5033348;28;1256;-39
2023/01/15 03:14:55;;;;;;;;;;;;;;;;;;5032266;28;1879;-40
2023/01/15 03:17:26;;;;;;;;;;;;;;;;;;5033227;28;1990;-39
2023/01/15 03:19:57;;;;;;;;;;;;;;;;;;5033429;28;1878;-39
2023/01/15 03:22:27;;;;;;;;;;;;;;;;;;5031882;28;1931;-39
2023/01/15 03:24:56;;;;;;;;;;;;;;;;;;5033217;28;1404;-38
2023/01/15 03:27:23;;;;;;;;;;;;;;;;;;5035815;28;2079;-37
2023/01/15 03:29:59;;;;;;;;;;;;;;;;;;5048493;28;1969;-39
2023/01/15 03:32:28;;;;;;;;;;;;;;;;;;5043260;28;1699;-40
2023/01/15 03:34:55;;;;;;;;;;;;;;;;;;5051684;28;2204;-39
2023/01/15 03:37:24;;;;;;;;;;;;;;;;;;5035117;28;1523;-39
2023/01/15 03:39:53;;;;;;;;;;;;;;;;;;5052877;28;1709;-39
2023/01/15 03:42:40;;;;;;;;;;;;;;;;;;5035154;28;2181;-39
2023/01/15 03:45:32;;;;;;;;;;;;;;;;;;5034019;28;1740;-40
2023/01/15 03:47:59;;;;;;;;;;;;;;;;;;5052564;28;1882;-39
2023/01/15 03:50:52;;;;;;;;;;;;;;;;;;5034730;28;1908;-40
2023/01/15 03:53:22;;;;;;;;;;;;;;;;;;5034016;28;1850;-39
2023/01/15 03:56:06;;;;;;;;;;;;;;;;;;5034792;28;1837;-39
2023/01/15 03:58:39;;;;;;;;;;;;;;;;;;5034412;28;1878;-39
2023/01/15 04:01:10;;;;;;;;;;;;;;;;;;5034672;28;1997;-39
2023/01/15 04:03:40;;;;;;;;;;;;;;;;;;5034618;28;1467;-39
2023/01/15 04:06:08;;;;;;;;;;;;;;;;;;5034564;28;2325;-39
2023/01/15 04:08:40;;;;;;;;;;;;;;;;;;5034434;28;2146;-39
2023/01/15 04:11:09;;;;;;;;;;;;;;;;;;5034327;28;1962;-39
2023/01/15 04:13:43;;;;;;;;;;;;;;;;;;5018938;28;1869;-39
2023/01/15 04:16:27;;;;;;;;;;;;;;;;;;5034457;28;1739;-39
2023/01/15 04:18:54;;;;;;;;;;;;;;;;;;5052130;28;2145;-39
2023/01/15 04:21:22;;;;;;;;;;;;;;;;;;5034137;28;1990;-39
2023/01/15 04:23:49;;;;;;;;;;;;;;;;;;5052372;28;1512;-39
2023/01/15 04:26:16;;;;;;;;;;;;;;;;;;5061225;28;2050;-40
2023/01/15 04:28:44;;;;;;;;;;;;;;;;;;5072130;28;1853;-39
2023/01/15 04:31:13;;;;;;;;;;;;;;;;;;5053518;28;1915;-40
2023/01/15 04:33:41;;;;;;;;;;;;;;;;;;5071547;28;1946;-40
2023/01/15 04:36:08;;;;;;;;;;;;;;;;;;5071880;28;1521;-40
2023/01/15 04:38:37;;;;;;;;;;;;;;;;;;5071725;28;2449;-39
2023/01/15 04:44:05;;;;;;;;;;;;;;;;;;5071870;28;1998;-39
2023/01/15 04:46:33;;;;;;;;;;;;;;;;;;5071675;28;2052;-39
2023/01/15 04:49:01;;;;;;;;;;;;;;;;;;5071590;28;1656;-40
2023/01/15 04:51:28;;;;;;;;;;;;;;;;;;5071611;28;1977;-39
2023/01/15 04:53:55;;;;;;;;;;;;;;;;;;5071651;28;1857;-40
2023/01/15 04:56:22;;;;;;;;;;;;;;;;;;5071718;28;2080;-40
2023/01/15 04:58:49;;;;;;;;;;;;;;;;;;5071727;28;1453;-39
2023/01/15 05:01:19;;;;;;;;;;;;;;;;;;5071130;28;1627;-39
2023/01/15 05:03:46;;;;;;;;;;;;;;;;;;5071521;28;1920;-39
2023/01/15 05:06:14;;;;;;;;;;;;;;;;;;5071280;28;2248;-39
2023/01/15 05:08:41;;;;;;;;;;;;;;;;;;5070876;28;1247;-39
2023/01/15 05:11:08;;;;;;;;;;;;;;;;;;5071180;28;2089;-39
2023/01/15 05:13:36;;;;;;;;;;;;;;;;;;5071109;28;1628;-39
2023/01/15 05:16:10;;;;;;;;;;;;;;;;;;5071482;28;1837;-39
2023/01/15 05:18:37;;;;;;;;;;;;;;;;;;5053467;28;2065;-41
2023/01/15 05:21:04;;;;;;;;;;;;;;;;;;5071286;28;2132;-39
2023/01/15 05:23:32;;;;;;;;;;;;;;;;;;5071061;28;1829;-39
2023/01/15 05:26:01;;;;;;;;;;;;;;;;;;5071104;28;2045;-39
2023/01/15 05:28:28;;;;;;;;;;;;;;;;;;5052335;28;1322;-39
2023/01/15 05:30:55;;;;;;;;;;;;;;;;;;5051357;28;2131;-38
2023/01/15 05:33:23;;;;;;;;;;;;;;;;;;5051260;28;1757;-40
2023/01/15 05:35:50;;;;;;;;;;;;;;;;;;5051177;28;1844;-39
2023/01/15 05:38:19;;;;;;;;;;;;;;;;;;5050775;28;1928;-39
2023/01/15 05:40:46;;;;;;;;;;;;;;;;;;5050957;28;1673;-39
2023/01/15 05:43:13;;;;;;;;;;;;;;;;;;5050919;28;2330;-39
2023/01/15 05:45:41;;;;;;;;;;;;;;;;;;5050891;28;1622;-39
2023/01/15 05:48:08;;;;;;;;;;;;;;;;;;5050692;28;1840;-39
2023/01/15 05:50:35;;;;;;;;;;;;;;;;;;5050693;28;1973;-40
2023/01/15 05:53:02;;;;;;;;;;;;;;;;;;5051037;28;2000;-38
2023/01/15 05:55:29;;;;;;;;;;;;;;;;;;5050980;28;1707;-40
2023/01/15 05:57:57;;;;;;;;;;;;;;;;;;5033228;28;2049;-40
2023/01/15 06:00:24;;;;;;;;;;;;;;;;;;5050934;28;1722;-39
2023/01/15 06:02:52;;;;;;;;;;;;;;;;;;5050749;28;1865;-40
2023/01/15 06:05:19;;;;;;;;;;;;;;;;;;5032755;28;2080;-38
2023/01/15 06:07:47;;;;;;;;;;;;;;;;;;5050783;28;1769;-39
2023/01/15 06:10:15;;;;;;;;;;;;;;;;;;5050584;28;1857;-39
2023/01/15 06:12:43;;;;;;;;;;;;;;;;;;5050769;28;2169;-39
2023/01/15 06:15:13;;;;;;;;;;;;;;;;;;5050706;28;2178;-40
2023/01/15 06:17:40;;;;;;;;;;;;;;;;;;5050688;28;2164;-40
2023/01/15 06:20:07;;;;;;;;;;;;;;;;;;5050626;28;1666;-40
2023/01/15 06:22:35;;;;;;;;;;;;;;;;;;5053373;28;2009;-40
2023/01/15 06:25:03;;;;;;;;;;;;;;;;;;5054379;28;2104;-39
2023/01/15 06:27:30;;;;;;;;;;;;;;;;;;5065440;28;2024;-39
2023/01/15 06:29:57;;;;;;;;;;;;;;;;;;5073655;28;1765;-39
2023/01/15 06:32:25;;;;;;;;;;;;;;;;;;5074138;28;1953;-39
2023/01/15 06:34:52;;;;;;;;;;;;;;;;;;5074027;28;1676;-40
2023/01/15 06:37:19;;;;;;;;;;;;;;;;;;5074177;28;1851;-40
2023/01/15 06:39:46;;;;;;;;;;;;;;;;;;5074093;28;2188;-39
2023/01/15 06:47:46;;;;;;;;;;;;;;;;;;5074048;28;1834;-40
2023/01/15 06:50:14;;;;;;;;;;;;;;;;;;5073920;28;1987;-40
2023/01/15 06:52:41;;;;;;;;;;;;;;;;;;5073931;28;1891;-40
2023/01/15 06:55:10;;;;;;;;;;;;;;;;;;5073820;28;2483;-39
2023/01/15 06:57:38;;;;;;;;;;;;;;;;;;5073913;28;2159;-40
2023/01/15 07:00:06;;;;;;;;;;;;;;;;;;5073769;28;1459;-39
2023/01/15 07:02:33;;;;;;;;;;;;;;;;;;5073758;28;2044;-40
2023/01/15 07:05:00;;;;;;;;;;;;;;;;;;5060039;28;1677;-40
2023/01/15 07:07:28;;;;;;;;;;;;;;;;;;5053702;28;1685;-40
2023/01/15 07:09:55;;;;;;;;;;;;;;;;;;5053108;28;1822;-39
2023/01/15 07:12:23;;;;;;;;;;;;;;;;;;5035391;28;1977;-40
2023/01/15 07:14:50;;;;;;;;;;;;;;;;;;5053370;28;2326;-40
2023/01/15 07:17:17;;;;;;;;;;;;;;;;;;5053539;28;1930;-40
2023/01/15 07:19:45;;;;;;;;;;;;;;;;;;5053273;28;2134;-39
2023/01/15 07:22:12;;;;;;;;;;;;;;;;;;5053389;28;2005;-40
2023/01/15 07:24:39;;;;;;;;;;;;;;;;;;5053163;28;1819;-39
2023/01/15 07:27:06;;;;;;;;;;;;;;;;;;5060770;28;2188;-39
2023/01/15 07:29:33;;;;;;;;;;;;;;;;;;5073292;28;1613;-39
2023/01/15 07:32:01;;;;;;;;;;;;;;;;;;5072655;28;1982;-39
2023/01/15 07:34:28;;;;;;;;;;;;;;;;;;5073141;28;2030;-40
2023/01/15 07:36:55;;;;;;;;;;;;;;;;;;5072963;28;1632;-40
2023/01/15 07:39:24;;;;;;;;;;;;;;;;;;5073112;28;1781;-40
2023/01/15 07:50:28;;;;;;;;;;;;;;;;;;5072745;28;1954;-41
2023/01/15 07:52:55;;;;;;;;;;;;;;;;;;5072457;28;1938;-40
2023/01/15 07:55:22;;;;;;;;;;;;;;;;;;5072483;28;1373;-40
2023/01/15 07:57:50;;;;;;;;;;;;;;;;;;5072417;28;2097;-40
2023/01/15 08:00:21;;;;;;;;;;;;;;;;;;5068952;28;1478;-40
2023/01/15 08:02:49;;;;;;;;;;;;;;;;;;5072304;28;1918;-41
2023/01/15 08:05:17;;;;;;;;;;;;;;;;;;5054804;28;2031;-39
2023/01/15 08:07:44;;;;;;;;;;;;;;;;;;5072362;28;1533;-39
2023/01/15 08:10:12;;;;;;;;;;;;;;;;;;5072009;28;1943;-40
2023/01/15 08:15:27;;;;;;;;;;;;;;;;;;5052088;28;2173;-39
2023/01/15 08:17:54;;;;;;;;;;;;;;;;;;5062202;28;2027;-40
2023/01/15 08:20:23;;;;;;;;;;;;;;;;;;5072100;28;1908;-39
2023/01/15 08:22:50;;;;;;;;;;;;;;;;;;5071745;28;1959;-39
2023/01/15 08:25:19;;;;;;;;;;;;;;;;;;5071939;28;1807;-39
2023/01/15 08:27:46;;;;;;;;;;;;;;;;;;5058701;28;2117;-40
2023/01/15 08:30:14;;;;;;;;;;;;;;;;;;5051903;28;2125;-39
2023/01/15 08:32:41;;;;;;;;;;;;;;;;;;5051779;28;1902;-40
2023/01/15 08:35:09;;;;;;;;;;;;;;;;;;5051360;28;1697;-40
2023/01/15 08:37:36;;;;;;;;;;;;;;;;;;5051812;28;1706;-39
2023/01/15 08:40:04;;;;;;;;;;;;;;;;;;5051722;28;1513;-40
2023/01/15 08:42:31;;;;;;;;;;;;;;;;;;5051804;28;2280;-40
2023/01/15 08:44:58;;;;;;;;;;;;;;;;;;5032820;28;2381;-39
2023/01/15 08:47:25;;;;;;;;;;;;;;;;;;5051626;28;1886;-40
2023/01/15 08:49:52;;;;;;;;;;;;;;;;;;5051364;28;1655;-39
2023/01/15 08:52:19;;;;;;;;;;;;;;;;;;5051398;28;1972;-38
2023/01/15 08:54:46;;;;;;;;;;;;;;;;;;5051707;28;1616;-40
2023/01/15 08:57:13;;;;;;;;;;;;;;;;;;5051380;28;1353;-39
2023/01/15 08:59:42;;;;;;;;;;;;;;;;;;5051471;28;1929;-39
2023/01/15 09:02:10;;;;;;;;;;;;;;;;;;5051513;28;1796;-39
2023/01/15 09:04:38;;;;;;;;;;;;;;;;;;5051169;28;1818;-39
2023/01/15 09:07:05;;;;;;;;;;;;;;;;;;5051518;28;1832;-39
2023/01/15 09:09:32;;;;;;;;;;;;;;;;;;5051310;28;1706;-39
2023/01/15 09:11:59;;;;;;;;;;;;;;;;;;5051031;28;1950;-39
2023/01/15 09:14:27;;;;;;;;;;;;;;;;;;5051052;28;2035;-39
2023/01/15 09:17:14;;;;;;;;;;;;;;;;;;5050702;28;2080;-38
2023/01/15 09:19:41;;;;;;;;;;;;;;;;;;5051168;28;1802;-39
2023/01/15 09:22:08;;;;;;;;;;;;;;;;;;5051307;28;1321;-48
2023/01/15 09:24:35;;;;;;;;;;;;;;;;;;5051108;28;1179;-39
2023/01/15 09:27:03;;;;;;;;;;;;;;;;;;5050817;28;1787;-39
2023/01/15 09:29:30;;;;;;;;;;;;;;;;;;5050822;28;1708;-40
2023/01/15 09:31:58;;;;;;;;;;;;;;;;;;5050656;28;1920;-39
2023/01/15 09:34:25;;;;;;;;;;;;;;;;;;5050750;28;2045;-39
2023/01/15 09:36:52;;;;;;;;;;;;;;;;;;5070198;28;2205;-39
2023/01/15 09:39:19;;;;;;;;;;;;;;;;;;5071099;28;1738;-39
2023/01/15 09:42:04;;;;;;;;;;;;;;;;;;5065677;28;1947;-46
2023/01/15 09:44:34;;;;;;;;;;;;;;;;;;5050821;28;1928;-39
2023/01/15 09:47:10;;;;;;;;;;;;;;;;;;5050899;28;2120;-42
2023/01/15 09:49:37;;;;;;;;;;;;;;;;;;5051176;28;1800;-39
2023/01/15 09:52:07;;;;;;;;;;;;;;;;;;5051032;28;1910;-40
2023/01/15 09:54:52;;;;;;;;;;;;;;;;;;5050441;28;2128;-40
2023/01/15 09:57:22;;;;;;;;;;;;;;;;;;5054799;28;1459;-39
2023/01/15 09:59:50;;;;;;;;;;;;;;;;;;5054469;28;1756;-40
2023/01/15 10:02:26;;;;;;;;;;;;;;;;;;5054439;28;2029;-39
2023/01/15 10:04:57;;;;;;;;;;;;;;;;;;5054403;28;1683;-40
2023/01/15 10:07:54;;;;;;;;;;;;;;;;;;5054660;28;1701;-39
2023/01/15 10:10:23;;;;;;;;;;;;;;;;;;5037797;28;1646;-39
2023/01/15 10:12:53;;;;;;;;;;;;;;;;;;5054437;28;1981;-40
2023/01/15 10:15:20;;;;;;;;;;;;;;;;;;5054242;28;1667;-40
2023/01/15 10:17:52;;;;;;;;;;;;;;;;;;5054547;28;1871;-40
2023/01/15 10:20:46;;;;;;;;;;;;;;;;;;5054304;28;1989;-39
2023/01/15 10:23:13;;;;;;;;;;;;;;;;;;5036243;28;1721;-39
2023/01/15 10:26:09;;;;;;;;;;;;;;;;;;5054293;28;1959;-44
2023/01/15 10:28:48;;;;;;;;;;;;;;;;;;5036457;28;2371;-39
2023/01/15 10:31:18;;;;;;;;;;;;;;;;;;5053969;28;2052;-41
2023/01/15 10:34:08;;;;;;;;;;;;;;;;;;5053800;28;2079;-40
2023/01/15 10:36:41;;;;;;;;;;;;;;;;;;5053425;28;2375;-38
2023/01/15 10:39:15;;;;;;;;;;;;;;;;;;5054184;28;2047;-40
2023/01/15 10:41:51;;;;;;;;;;;;;;;;;;5053727;28;1280;-40
2023/01/15 10:44:22;;;;;;;;;;;;;;;;;;5053956;28;1538;-40
2023/01/15 10:46:52;;;;;;;;;;;;;;;;;;5053845;28;1706;-39
2023/01/15 10:49:21;;;;;;;;;;;;;;;;;;5054062;28;2109;-39
2023/01/15 10:51:53;;;;;;;;;;;;;;;;;;5053909;28;1991;-39
2023/01/15 10:54:24;;;;;;;;;;;;;;;;;;5035868;28;2015;-40
2023/01/15 10:57:01;;;;;;;;;;;;;;;;;;5053921;28;1700;-44
2023/01/15 10:59:47;;;;;;;;;;;;;;;;;;5053690;28;1473;-39
2023/01/15 11:02:32;;;;;;;;;;;;;;;;;;5053728;28;1352;-41
2023/01/15 11:05:00;;;;;;;;;;;;;;;;;;5053658;28;1900;-40
2023/01/15 11:07:44;;;;;;;;;;;;;;;;;;5052573;28;2087;-39
2023/01/15 11:10:32;;;;;;;;;;;;;;;;;;5053571;28;2194;-39
2023/01/15 11:21:39;;;;;;;;;;;;;;;;;;5053312;28;1936;-38
2023/01/15 11:24:13;;;;;;;;;;;;;;;;;;5034572;28;2038;-39
2023/01/15 11:26:40;;;;;;;;;;;;;;;;;;5051321;28;1860;-38
2023/01/15 11:29:36;;;;;;;;;;;;;;;;;;5051604;28;1855;-40
2023/01/15 11:32:16;;;;;;;;;;;;;;;;;;5048452;28;1970;-40
2023/01/15 11:34:51;;;;;;;;;;;;;;;;;;5057134;28;1883;-39
2023/01/15 11:37:18;;;;;;;;;;;;;;;;;;5070887;28;1834;-39
2023/01/15 11:40:07;;;;;;;;;;;;;;;;;;5071926;28;1917;-38
2023/01/15 11:51:11;;;;;;;;;;;;;;;;;;5055603;28;1619;-39
2023/01/15 11:53:58;;;;;;;;;;;;;;;;;;5052603;28;1918;-38
2023/01/15 11:56:27;;;;;;;;;;;;;;;;;;5052218;28;1933;-39
2023/01/15 11:58:56;;;;;;;;;;;;;;;;;;5052484;28;1863;-39
2023/01/15 12:01:30;;;;;;;;;;;;;;;;;;5052662;28;1253;-39
2023/01/15 12:03:58;;;;;;;;;;;;;;;;;;5052375;28;1931;-38
2023/01/15 12:06:26;;;;;;;;;;;;;;;;;;5052595;28;1345;-38
2023/01/15 12:09:03;;;;;;;;;;;;;;;;;;5052297;28;1550;-38
2023/01/15 12:11:46;;;;;;;;;;;;;;;;;;5052386;28;1575;-38
2023/01/15 12:14:38;;;;;;;;;;;;;;;;;;5034459;28;1965;-39
2023/01/15 12:17:16;;;;;;;;;;;;;;;;;;5015948;28;1549;-38
2023/01/15 12:20:09;;;;;;;;;;;;;;;;;;5051052;28;1902;-40
2023/01/15 12:22:36;;;;;;;;;;;;;;;;;;5019915;28;2129;-38
2023/01/15 12:25:06;;;;;;;;;;;;;;;;;;5050227;28;1405;-38
2023/01/15 12:27:52;;;;;;;;;;;;;;;;;;5061369;28;1729;-39
2023/01/15 12:30:19;;;;;;;;;;;;;;;;;;5071328;28;1846;-38
2023/01/15 12:33:06;;;;;;;;;;;;;;;;;;5071634;28;1907;-39
2023/01/15 12:35:40;;;;;;;;;;;;;;;;;;5072046;28;2000;-39
2023/01/15 12:38:27;;;;;;;;;;;;;;;;;;5071810;28;1551;-39
2023/01/15 12:41:02;;;;;;;;;;;;;;;;;;5071869;28;1398;-38
2023/01/15 12:46:18;;;;;;;;;;;;;;;;;;5071819;28;1765;-38
2023/01/15 12:48:50;;;;;;;;;;;;;;;;;;5071824;28;2279;-38
2023/01/15 12:51:21;;;;;;;;;;;;;;;;;;5071683;28;1686;-38
2023/01/15 12:53:56;;;;;;;;;;;;;;;;;;5071589;28;2067;-38
2023/01/15 12:56:32;;;;;;;;;;;;;;;;;;5071482;28;1827;-38
2023/01/15 12:59:10;;;;;;;;;;;;;;;;;;5071432;28;2167;-38
2023/01/15 13:01:46;;;;;;;;;;;;;;;;;;5071423;28;1986;-38
2023/01/15 13:04:16;;;;;;;;;;;;;;;;;;5071324;28;1782;-38
2023/01/15 13:06:47;;;;;;;;;;;;;;;;;;5071005;28;1626;-38
2023/01/15 13:09:22;;;;;;;;;;;;;;;;;;5071533;28;1462;-38
2023/01/15 13:11:51;;;;;;;;;;;;;;;;;;5054028;28;2035;-38
2023/01/15 13:14:18;;;;;;;;;;;;;;;;;;5071385;28;1969;-38
2023/01/15 13:16:52;;;;;;;;;;;;;;;;;;5069393;28;1630;-37
2023/01/15 13:19:28;;;;;;;;;;;;;;;;;;5051476;28;1911;-38
2023/01/15 13:21:57;;;;;;;;;;;;;;;;;;5051174;28;2341;-36
2023/01/15 13:24:27;;;;;;;;;;;;;;;;;;5051176;28;2034;-37
2023/01/15 13:27:06;;;;;;;;;;;;;;;;;;5051016;28;1965;-37
2023/01/15 13:29:39;;;;;;;;;;;;;;;;;;5050875;28;1971;-37
2023/01/15 13:32:09;;;;;;;;;;;;;;;;;;5050831;28;1930;-36
2023/01/15 13:34:41;;;;;;;;;;;;;;;;;;5051167;28;2011;-38
2023/01/15 13:37:27;;;;;;;;;;;;;;;;;;5051024;28;1966;-36
2023/01/15 13:40:00;;;;;;;;;;;;;;;;;;5048992;28;2066;-36
2023/01/15 13:42:37;;;;;;;;;;;;;;;;;;5051185;28;2183;-37
2023/01/15 13:45:14;;;;;;;;;;;;;;;;;;5050477;28;1332;-37
2023/01/15 13:47:45;;;;;;;;;;;;;;;;;;5050931;28;1844;-37
2023/01/15 13:50:15;;;;;;;;;;;;;;;;;;5050910;28;1689;-37
2023/01/15 13:52:43;;;;;;;;;;;;;;;;;;5050385;28;1984;-37
2023/01/15 13:55:12;;;;;;;;;;;;;;;;;;5050811;28;1425;-37
2023/01/15 13:57:40;;;;;;;;;;;;;;;;;;5050825;28;1864;-37
2023/01/15 14:00:26;;;;;;;;;;;;;;;;;;5050313;28;1831;-37
2023/01/15 14:02:54;;;;;;;;;;;;;;;;;;5050971;28;2258;-36
2023/01/15 14:05:21;;;;;;;;;;;;;;;;;;5051050;28;1810;-37
2023/01/15 14:07:49;;;;;;;;;;;;;;;;;;5050173;28;1731;-36
2023/01/15 14:10:16;;;;;;;;;;;;;;;;;;5050760;28;1457;-39
2023/01/15 14:12:49;;;;;;;;;;;;;;;;;;5050615;28;1904;-38
2023/01/15 14:15:22;;;;;;;;;;;;;;;;;;5066108;28;1946;-37
2023/01/15 14:17:57;;;;;;;;;;;;;;;;;;5070798;28;1649;-37
2023/01/15 14:20:40;;;;;;;;;;;;;;;;;;5070335;28;1984;-37
2023/01/15 14:23:27;;;;;;;;;;;;;;;;;;5070170;28;1913;-37
2023/01/15 14:26:01;;;;;;;;;;;;;;;;;;5056969;28;1602;-37
2023/01/15 14:28:28;;;;;;;;;;;;;;;;;;5051352;28;1692;-37
2023/01/15 14:31:13;;;;;;;;;;;;;;;;;;5050086;28;1834;-38
2023/01/15 14:33:59;;;;;;;;;;;;;;;;;;5049740;28;1950;-37
2023/01/15 14:36:28;;;;;;;;;;;;;;;;;;5050615;28;1570;-37
2023/01/15 14:38:59;;;;;;;;;;;;;;;;;;5050664;28;1620;-38
2023/01/15 14:41:32;;;;;;;;;;;;;;;;;;5050500;28;1874;-38
2023/01/15 14:44:00;;;;;;;;;;;;;;;;;;5036209;28;1795;-38
2023/01/15 14:46:37;;;;;;;;;;;;;;;;;;5054534;28;2040;-39
2023/01/15 14:49:04;;;;;;;;;;;;;;;;;;5053966;28;1604;-38
2023/01/15 14:51:35;;;;;;;;;;;;;;;;;;5053976;28;1972;-38
2023/01/15 14:54:02;;;;;;;;;;;;;;;;;;5035937;28;2041;-38
2023/01/15 14:56:35;;;;;;;;;;;;;;;;;;5053674;28;1724;-38
2023/01/15 14:59:12;;;;;;;;;;;;;;;;;;5053700;28;1651;-38
2023/01/15 15:01:54;;;;;;;;;;;;;;;;;;5053806;28;1605;-38
2023/01/15 15:04:40;;;;;;;;;;;;;;;;;;5036121;28;1342;-38
2023/01/15 15:07:11;;;;;;;;;;;;;;;;;;5053451;28;1754;-39
2023/01/15 15:09:46;;;;;;;;;;;;;;;;;;5053754;28;1797;-37
2023/01/15 15:12:19;;;;;;;;;;;;;;;;;;5053591;28;1563;-39
2023/01/15 15:14:51;;;;;;;;;;;;;;;;;;5053459;28;1906;-39
2023/01/15 15:17:29;;;;;;;;;;;;;;;;;;5053461;28;1997;-38
2023/01/15 15:20:01;;;;;;;;;;;;;;;;;;5036006;28;1886;-38
2023/01/15 15:22:31;;;;;;;;;;;;;;;;;;5053646;28;1500;-38
2023/01/15 15:25:00;;;;;;;;;;;;;;;;;;5053503;28;1730;-38
2023/01/15 15:27:27;;;;;;;;;;;;;;;;;;5063805;28;1715;-38
2023/01/15 15:30:02;;;;;;;;;;;;;;;;;;5073321;28;1720;-38
2023/01/15 15:32:29;;;;;;;;;;;;;;;;;;5072441;28;1590;-38
2023/01/15 15:34:58;;;;;;;;;;;;;;;;;;5073372;28;1910;-39
2023/01/15 15:37:27;;;;;;;;;;;;;;;;;;5073423;28;1589;-39
2023/01/15 15:40:01;;;;;;;;;;;;;;;;;;5055513;28;1995;-38
2023/01/15 15:48:43;;;;;;;;;;;;;;;;;;5072883;28;1753;-38
2023/01/15 15:51:28;;;;;;;;;;;;;;;;;;5072854;28;1781;-39
2023/01/15 15:54:05;;;;;;;;;;;;;;;;;;5072872;28;1917;-38
2023/01/15 15:56:33;;;;;;;;;;;;;;;;;;5072770;28;1824;-38
2023/01/15 15:59:00;;;;;;;;;;;;;;;;;;5072884;28;1608;-39
2023/01/15 16:01:28;;;;;;;;;;;;;;;;;;5072810;28;1942;-38
2023/01/15 16:03:55;;;;;;;;;;;;;;;;;;5072642;28;1699;-39
2023/01/15 16:06:26;;;;;;;;;;;;;;;;;;5072663;28;2233;-38
2023/01/15 16:08:55;;;;;;;;;;;;;;;;;;5072489;28;2327;-38
2023/01/15 16:11:23;;;;;;;;;;;;;;;;;;5072584;28;1868;-38
2023/01/15 16:13:52;;;;;;;;;;;;;;;;;;5054260;28;1911;-38
2023/01/15 16:16:20;;;;;;;;;;;;;;;;;;5072447;28;1665;-38
2023/01/15 16:18:57;;;;;;;;;;;;;;;;;;5072449;28;1662;-38
2023/01/15 16:21:29;;;;;;;;;;;;;;;;;;5072379;28;2070;-38
2023/01/15 16:23:57;;;;;;;;;;;;;;;;;;5072093;28;1926;-39
2023/01/15 16:26:47;;;;;;;;;;;;;;;;;;5070280;28;1706;-39
2023/01/15 16:29:16;;;;;;;;;;;;;;;;;;5042605;28;1953;-38
2023/01/15 16:31:44;;;;;;;;;;;;;;;;;;5051897;28;1504;-37
2023/01/15 16:34:15;;;;;;;;;;;;;;;;;;5051878;28;1918;-38
2023/01/15 16:36:44;;;;;;;;;;;;;;;;;;5051866;28;1324;-39
2023/01/15 16:39:17;;;;;;;;;;;;;;;;;;5051932;28;1665;-39
2023/01/15 16:41:44;;;;;;;;;;;;;;;;;;5051883;28;1841;-38
2023/01/15 16:44:23;;;;;;;;;;;;;;;;;;5051912;28;2018;-40
2023/01/15 16:46:54;;;;;;;;;;;;;;;;;;5051846;28;1683;-38
2023/01/15 16:49:21;;;;;;;;;;;;;;;;;;5034097;28;1770;-38
2023/01/15 16:51:49;;;;;;;;;;;;;;;;;;5051926;28;2021;-39
2023/01/15 16:54:29;;;;;;;;;;;;;;;;;;5051776;28;1914;-38
2023/01/15 16:56:56;;;;;;;;;;;;;;;;;;5051674;28;1668;-38
2023/01/15 16:59:23;;;;;;;;;;;;;;;;;;5051718;28;1450;-38
2023/01/15 17:01:55;;;;;;;;;;;;;;;;;;5051343;28;1723;-38
2023/01/15 17:04:35;;;;;;;;;;;;;;;;;;5051219;28;1650;-38
2023/01/15 17:07:07;;;;;;;;;;;;;;;;;;5051443;28;2252;-38
2023/01/15 17:09:36;;;;;;;;;;;;;;;;;;5051640;28;1518;-40
2023/01/15 17:12:06;;;;;;;;;;;;;;;;;;5051409;28;2081;-38
2023/01/15 17:14:33;;;;;;;;;;;;;;;;;;5051533;28;1979;-39
2023/01/15 17:17:19;;;;;;;;;;;;;;;;;;5051372;28;1662;-38
2023/01/15 17:19:46;;;;;;;;;;;;;;;;;;5051367;28;2152;-38
2023/01/15 17:22:15;;;;;;;;;;;;;;;;;;5051087;28;1780;-38
2023/01/15 17:24:46;;;;;;;;;;;;;;;;;;5051208;28;1728;-38
2023/01/15 17:27:14;;;;;;;;;;;;;;;;;;5059207;28;2361;-40
2023/01/15 17:29:41;;;;;;;;;;;;;;;;;;5071307;28;1623;-40
2023/01/15 17:32:12;;;;;;;;;;;;;;;;;;5071074;28;1657;-39
2023/01/15 17:34:39;;;;;;;;;;;;;;;;;;5053357;28;2001;-39
2023/01/15 17:37:06;;;;;;;;;;;;;;;;;;5071094;28;1407;-39
2023/01/15 17:39:34;;;;;;;;;;;;;;;;;;5071305;28;1948;-40
2023/01/15 17:42:13;;;;;;;;;;;;;;;;;;5068063;28;1906;-39
2023/01/15 17:44:40;;;;;;;;;;;;;;;;;;5051033;28;1984;-40
2023/01/15 17:47:08;;;;;;;;;;;;;;;;;;5051002;28;1736;-39
2023/01/15 17:49:36;;;;;;;;;;;;;;;;;;5050950;28;1840;-38
2023/01/15 17:52:03;;;;;;;;;;;;;;;;;;5051086;28;2008;-39
2023/01/15 18:05:45;;;;;;;;;;;;;;;;;;5050863;28;1824;-39
2023/01/15 18:08:13;;;;;;;;;;;;;;;;;;5050669;28;1841;-39
2023/01/15 18:10:40;;;;;;;;;;;;;;;;;;5050849;28;2138;-39
2023/01/15 18:13:07;;;;;;;;;;;;;;;;;;5050923;28;1515;-39
2023/01/15 18:15:35;;;;;;;;;;;;;;;;;;5050770;28;1949;-39
2023/01/15 18:18:03;;;;;;;;;;;;;;;;;;5054538;28;1615;-39
2023/01/15 18:20:31;;;;;;;;;;;;;;;;;;5054452;28;1954;-40
2023/01/15 18:22:59;;;;;;;;;;;;;;;;;;5054559;28;1755;-40
2023/01/15 18:25:26;;;;;;;;;;;;;;;;;;5053438;28;2524;-39
2023/01/15 18:27:54;;;;;;;;;;;;;;;;;;5050789;28;2010;-39
2023/01/15 18:30:21;;;;;;;;;;;;;;;;;;5074588;28;1785;-39
2023/01/15 18:32:48;;;;;;;;;;;;;;;;;;5055822;28;1884;-39